Las Palmas de Gran Canaria, El Salvador

8:07 AM WEST on 六月 24, 2017 (GMT +0100)
Las Palmas de Gran Canaria

天気 に付いての歴史 GCLP - 三月, 2017

Change the Weather History Date:

月曜日, 三月 20, 2017

  Actual Average Record
Temperature  
平均温度 65 °F -  
最高温度 71 °F 70 °F 83 °F (2015)
最低温度 59 °F 60 °F 58 °F (2015)
Growing Degree Days 15 (Base 50)    
Moisture  
露点温度 54 °F    
Average Humidity 64    
Maximum Humidity 82    
Minimum Humidity 42    
降水確率  
降水確率 0.00 インチ 0.01 インチ - ()
海面圧  
海面圧 30.20 インチ    
 
風速 16 Mph ()    
最大風速 28 Mph    
Max Gust Speed 38 Mph    
視程 6.6 マイル    
イベント      
Averages and records for this station are not official NWS values.
T = Trace of Precipitation, MM = Missing Value Source: Averaged Metar Reports

Daily Weather History Graph

Daily Weather History Graph

Search for Another Location

Airport or City:

Trip Planner

Search our weather history database for the weather conditions in past years. The results will help you decide how hot, cold, wet, or windy it might be!

Date:

天文

Mar. 20, 2017 入り
実時間 7:05 AM WET 7:12 PM WET
常用薄明 6:41 AM WET 7:36 PM WET
航海薄明 6:14 AM WET 8:03 PM WET
天文薄明 5:47 AM WET 8:31 PM WET
1:21 AM WET (3/20) 12:19 PM WET (3/20)
可視光の長さ 12h 54m
可照時間
12h 07m
十八夜, 52% of the Moon is Illuminated
3月 20
十八夜
3月 20
第 4 四半期
3月 28
新しい
4月 3
上弦
4月 11
満月

Hourly Weather History & Observations

時間 (WET) 温度 露点温度 湿度 気圧 視程 Wind Dir 風速 突風の速度 Precip イベント 現在の気象状況
12:00 AM 62 °F 54 °F 69% 30.14 インチ 9 マイル 12.7 Mph - -   やや曇
12:00 AM 62.6 °F 55.4 °F 77% 30.12 インチ 6.2 マイル 16.1 Mph - N/A   所により曇
12:30 AM 62.6 °F 55.4 °F 77% 30.12 インチ 6.2 マイル 16.1 Mph - N/A   所により曇
1:00 AM 62 °F 55 °F 72% 30.14 インチ - 11.5 Mph - -  
1:00 AM 62.6 °F 57.2 °F 82% 30.12 インチ 6.2 マイル 15.0 Mph - N/A   所により曇
1:30 AM 62.6 °F 57.2 °F 82% 30.12 インチ 6.2 マイル 17.3 Mph - N/A   所により曇
2:00 AM 63 °F 55 °F 67% 30.14 インチ - 17.3 Mph - -  
2:00 AM 62.6 °F 55.4 °F 77% 30.12 インチ 6.2 マイル 20.7 Mph - N/A   所により曇
2:30 AM 62.6 °F 53.6 °F 72% 30.12 インチ 6.2 マイル 19.6 Mph - N/A   所により曇
3:00 AM 62 °F 52 °F 61% 30.13 インチ 9 マイル 10.4 Mph - -   所により曇
3:00 AM 62.6 °F 53.6 °F 72% 30.12 インチ 6.2 マイル 16.1 Mph - N/A   やや曇
3:30 AM 62.6 °F 53.6 °F 72% 30.12 インチ 6.2 マイル 15.0 Mph - N/A   やや曇
4:00 AM 62 °F 53 °F 63% 30.13 インチ - 11.5 Mph - -  
4:00 AM 62.6 °F 53.6 °F 72% 30.12 インチ 6.2 マイル 北北東 15.0 Mph - N/A   所により曇
4:30 AM 62.6 °F 53.6 °F 72% 30.09 インチ 6.2 マイル 17.3 Mph - N/A   所により曇
5:00 AM 62 °F 53 °F 64% 30.13 インチ - 11.5 Mph - -  
5:00 AM 62.6 °F 53.6 °F 72% 30.12 インチ 6.2 マイル 13.8 Mph - N/A   所により曇
5:30 AM 62.6 °F 53.6 °F 72% 30.12 インチ 6.2 マイル 16.1 Mph - N/A   所により曇
6:00 AM 62 °F 54 °F 69% 30.13 インチ 9 マイル 15.0 Mph - -   所により曇
6:00 AM 62.6 °F 55.4 °F 77% 30.12 インチ 6.2 マイル 16.1 Mph - N/A   やや曇
6:30 AM 62.6 °F 55.4 °F 77% 30.15 インチ 6.2 マイル 12.7 Mph - N/A   やや曇
7:00 AM 62 °F 53 °F 66% 30.17 インチ - 13.8 Mph - -  
7:00 AM 62.6 °F 53.6 °F 72% 30.15 インチ 6.2 マイル 17.3 Mph - N/A   やや曇
7:30 AM 62.6 °F 53.6 °F 72% 30.15 インチ 6.2 マイル 16.1 Mph - N/A   やや曇
8:00 AM 63 °F 54 °F 66% 30.20 インチ - 北北西 9.2 Mph - -  
8:00 AM 62.6 °F 55.4 °F 77% 30.18 インチ 6.2 マイル 13.8 Mph - N/A   所により曇
8:30 AM 64.4 °F 55.4 °F 73% 30.21 インチ 6.2 マイル 12.7 Mph - N/A   だいたい曇
9:00 AM 65 °F 54 °F 58% 30.22 インチ 7 マイル 10.4 Mph - -   所により曇
9:00 AM 66.2 °F 55.4 °F 68% 30.21 インチ 6.2 マイル 10.4 Mph - N/A   所により曇
9:30 AM 68.0 °F 55.4 °F 64% 30.21 インチ 6.2 マイル 17.3 Mph - N/A   やや曇
10:00 AM 67 °F 53 °F 50% 30.22 インチ - 15.0 Mph - -  
10:00 AM 68.0 °F 53.6 °F 60% 30.21 インチ 6.2 マイル 18.4 Mph - N/A   所により曇
10:30 AM 69.8 °F 53.6 °F 56% 30.21 インチ 6.2 マイル 北北東 23.0 Mph - N/A   所により曇
11:00 AM 68 °F 53 °F 49% 30.22 インチ - 15.0 Mph - -  
11:00 AM 69.8 °F 53.6 °F 56% 30.21 インチ 6.2 マイル 北北東 21.9 Mph - N/A   所により曇
11:30 AM 69.8 °F 53.6 °F 56% 30.21 インチ 6.2 マイル 19.6 Mph - N/A   所により曇
12:00 PM 70 °F 53 °F 44% 30.23 インチ 11 マイル 16.1 Mph - -   やや曇
12:00 PM 69.8 °F 51.8 °F 53% 30.21 インチ 6.2 マイル 北北東 19.6 Mph - N/A   所により曇
12:30 PM 69.8 °F 55.4 °F 60% 30.24 インチ 6.2 マイル 北北東 23.0 Mph - N/A   やや曇
1:00 PM 70 °F 53 °F 45% 30.25 インチ - 21.9 Mph - -  
1:00 PM 69.8 °F 55.4 °F 60% 30.24 インチ 6.2 マイル 北北東 25.3 Mph - N/A   所により曇
1:30 PM 71.6 °F 53.6 °F 53% 30.24 インチ 6.2 マイル 北北東 24.2 Mph - N/A   所により曇
2:00 PM 71 °F 53 °F 42% 30.24 インチ - 18.4 Mph - -  
2:00 PM 71.6 °F 55.4 °F 57% 30.24 インチ 6.2 マイル 北北東 26.5 Mph - N/A   やや曇
2:30 PM 71.6 °F 53.6 °F 53% 30.21 インチ 6.2 マイル 24.2 Mph 35.7 Mph N/A   所により曇
3:00 PM 70 °F 52 °F 43% 30.23 インチ 11 マイル 17.3 Mph - -   やや曇
3:00 PM 71.6 °F 53.6 °F 53% 30.21 インチ 6.2 マイル 21.9 Mph - N/A   所により曇
3:30 PM 69.8 °F 53.6 °F 56% 30.21 インチ 6.2 マイル 23.0 Mph - N/A   所により曇
4:00 PM 69 °F 52 °F 45% 30.21 インチ - 18.4 Mph - -  
4:00 PM 69.8 °F 51.8 °F 53% 30.21 インチ 6.2 マイル 24.2 Mph - N/A   所により曇
4:30 PM 69.8 °F 51.8 °F 53% 30.21 インチ 6.2 マイル 23.0 Mph - N/A   所により曇
5:00 PM 68 °F 52 °F 47% 30.22 インチ - 20.7 Mph - -  
5:00 PM 69.8 °F 53.6 °F 56% 30.21 インチ 6.2 マイル 26.5 Mph - N/A   所により曇
6:00 PM 66 °F 53 °F 54% 30.23 インチ 6 マイル 21.9 Mph - -   やや曇
6:00 PM 68.0 °F 53.6 °F 60% 30.21 インチ 6.2 マイル 27.6 Mph - N/A   所により曇
6:30 PM 66.2 °F 55.4 °F 68% 30.21 インチ 6.2 マイル 25.3 Mph - N/A   所により曇
7:00 PM 65 °F 54 °F 59% 30.25 インチ - 17.3 Mph - -  
7:00 PM 66.2 °F 55.4 °F 68% 30.24 インチ 6.2 マイル 24.2 Mph 35.7 Mph N/A   所により曇
7:30 PM 64.4 °F 53.6 °F 68% 30.24 インチ 6.2 マイル 21.9 Mph - N/A   所により曇
8:00 PM 64 °F 54 °F 63% 30.27 インチ - 17.3 Mph - -  
8:00 PM 64.4 °F 55.4 °F 73% 30.24 インチ 6.2 マイル 23.0 Mph - N/A   所により曇
8:30 PM 64.4 °F 55.4 °F 73% 30.27 インチ 6.2 マイル 24.2 Mph 38.0 Mph N/A   所により曇
9:00 PM 63 °F 55 °F 67% 30.29 インチ 9 マイル 16.1 Mph - -   やや曇
9:00 PM 64.4 °F 55.4 °F 73% 30.27 インチ 6.2 マイル 20.7 Mph - N/A   所により曇
9:30 PM 64.4 °F 55.4 °F 73% 30.30 インチ 6.2 マイル 23.0 Mph - N/A   所により曇
10:00 PM 63 °F 54 °F 66% 30.30 インチ - 13.8 Mph - -  
10:00 PM 64.4 °F 55.4 °F 73% 30.30 インチ 6.2 マイル 21.9 Mph - N/A   所により曇
10:30 PM 64.4 °F 55.4 °F 73% 30.30 インチ 6.2 マイル 21.9 Mph - N/A   やや曇
11:00 PM 63 °F 55 °F 67% 30.29 インチ - 16.1 Mph - -  
11:30 PM 62.6 °F 53.6 °F 72% 30.27 インチ 6.2 マイル 20.7 Mph - N/A   やや曇